Buffalo, WY (82834)

10:09 PM MDT on August 31, 2016 (GMT -0600)
Buffalo | | Change Station
Active Advisory: Fire Weather Watch

Elev 4708 ft 44.34 °N, 106.70 °W | Updated 27 seconds ago

Clear
Clear
72.0 °F
Feels Like 77 °F
N
8.1
Wind Variable Wind from South
Gusts 9.8 mph

Today
High -- | Low -- °F
--% Chance of Precip.
Yesterday
High -- | Low -- °F
Precip. -- in
Pressure 29.94 in
Visibility 10.0 miles
Clouds Clear
Heat Index 77 °F
Dew Point 48 °F
Humidity 42%
Rainfall 0.00 in
Snow Depth Not available.
6:29 AM 7:43 PM
Waning Crescent, 0% visible
METAR KBYG 010353Z AUTO 16014KT 10SM CLR 22/07 A3012 RMK AO2 SLP136 T02220072
Pressure 29.94 in
Visibility 10.0 miles
Clouds Clear
Heat Index 77 °F
Dew Point 48 °F
Humidity 42%
Rainfall 0.00 in
Snow Depth Not available.
6:29 AM 7:43 PM
Waning Crescent, 0% visible
METAR KBYG 010353Z AUTO 16014KT 10SM CLR 22/07 A3012 RMK AO2 SLP136 T02220072

10-Day Weather Forecast

Almanac

Astronomy

Aug. 31, 2016 Rise Set
Actual Time
Civil Twilight
Nautical Twilight
Astronomical Twilight
Moon
Length of Visible Light
Length of Day
Tomorrow will be .
, % of the Moon is Illuminated

Today's Extremes

State Highs State Lows

Community

WunderPhotos

Upload Photos

1,936,293 photos uploaded!

WunderBlog® & News

Nearby

Air Quality

  Air Quality AQ Index Pollutant
Not available.

Snow Depth

Station Depth Elevation

Earthquake Activity

City Distance Mag. Time & Date
Minimum magnitude displayed is 2.5.

Coastal Water Temperatures

Place Temperature

Stations

Nearby Weather Stations

Station Location Temp. Windchill Dew Point Humidity Wind Precip. Elev Updated Type
                   

Watches & Warnings

Fire Weather Watch
Issued: 8:32 PM MDT Aug. 31, 2016 – National Weather Service

... Fire Weather Watch in effect from Friday afternoon through
Friday evening for low relative humidity... gusty winds... and critically
dry fuels...

The National Weather Service in Riverton has issued a Fire
Weather Watch... which is in effect from Friday afternoon through
Friday evening.

* Affected area... fire weather zone 281.

* Wind... southwest 15 to 20 mph with gusts 25 to 30 mph.

* Humidity... 12 to 15 percent.

* Thunderstorms... isolated thunderstorms with potential wind
gusts of 45 mph.

* Impacts... any fires that develop will likely spread rapidly.
Outdoor burning is not recommended.

Precautionary/preparedness actions...

A Fire Weather Watch means that critical fire weather conditions
are forecast to occur. Listen for later forecasts and possible
red flag warnings.